Time;durP1;ratioP1;P1;durP2;ratioP2;P2;SDS_P1;SDS_P2;PMS_P1;PMS_P2;Temp;Humidity;BMP_temperature;BMP_pressure;BME280_temperature;BME280_humidity;BME280_pressure;Samples;Min_cycle;Max_cycle;Signal;HPM_P1;HPM_P2
2021/04/29 00:01:28;;;;;;;23.80;13.43;;;;;;;10.15;79.61;98644.46;1782730;80;21166;-78
2021/04/29 00:03:55;;;;;;;22.22;12.37;;;;;;;10.07;79.42;98636.06;1804647;79;21162;-79
2021/04/29 00:06:23;;;;;;;33.28;12.78;;;;;;;10.12;79.27;98643.25;1791938;79;21181;-79
2021/04/29 00:08:50;;;;;;;24.30;13.55;;;;;;;10.10;79.93;98640.30;1793371;79;21239;-80
2021/04/29 00:11:17;;;;;;;25.48;13.98;;;;;;;10.05;79.42;98654.73;1781394;79;21163;-78
2021/04/29 00:13:45;;;;;;;26.68;13.80;;;;;;;9.99;79.92;98649.73;1793445;79;21628;-79
2021/04/29 00:16:12;;;;;;;27.40;12.88;;;;;;;9.96;80.79;98645.91;1798727;79;21134;-79
2021/04/29 00:18:40;;;;;;;23.52;12.15;;;;;;;9.85;80.89;98636.31;1805796;79;21440;-79
2021/04/29 00:21:07;;;;;;;21.95;12.55;;;;;;;9.91;79.30;98650.41;1745557;81;22341;-79
2021/04/29 00:23:35;;;;;;;24.18;12.23;;;;;;;9.92;79.44;98649.50;1755933;81;21712;-80
2021/04/29 00:26:02;;;;;;;25.37;11.25;;;;;;;9.93;79.31;98642.97;1746991;81;21177;-79
2021/04/29 00:28:30;;;;;;;27.85;12.43;;;;;;;9.96;79.97;98645.91;1760772;81;21149;-79
2021/04/29 00:30:57;;;;;;;25.32;12.20;;;;;;;9.99;80.33;98646.26;1755639;81;21190;-79
2021/04/29 00:33:25;;;;;;;28.10;12.63;;;;;;;10.02;79.13;98645.72;1751068;81;21188;-79
2021/04/29 00:35:52;;;;;;;21.73;10.82;;;;;;;9.93;79.22;98626.09;1760601;81;21609;-80
2021/04/29 00:38:20;;;;;;;27.95;11.43;;;;;;;10.06;79.67;98651.68;1764213;81;21196;-79
2021/04/29 00:40:47;;;;;;;28.62;12.23;;;;;;;10.06;79.62;98638.23;1745545;81;21185;-79
2021/04/29 00:43:14;;;;;;;24.30;11.30;;;;;;;10.07;79.07;98638.66;1764841;81;21137;-78
2021/04/29 00:45:42;;;;;;;21.65;11.05;;;;;;;10.09;79.44;98640.76;1780329;79;21173;-80
2021/04/29 00:48:10;;;;;;;30.05;11.60;;;;;;;10.08;81.01;98643.39;1797696;79;21166;-79
2021/04/29 00:50:38;;;;;;;25.92;12.35;;;;;;;10.09;80.47;98639.46;1745329;81;22270;-79
2021/04/29 00:53:05;;;;;;;28.07;11.88;;;;;;;10.12;79.79;98639.80;1762209;81;21175;-80
2021/04/29 00:55:34;;;;;;;24.12;12.18;;;;;;;10.12;79.41;98645.84;1762384;81;21210;-81
2021/04/29 00:58:02;;;;;;;23.47;12.05;;;;;;;10.08;81.34;98648.13;1791971;79;21169;-80
2021/04/29 01:00:31;;;;;;;29.48;12.00;;;;;;;10.09;79.44;98637.32;1745485;81;21173;-80
2021/04/29 01:03:16;;;;;;;23.83;11.22;;;;;;;10.08;79.33;98641.64;1795100;79;21190;-79
2021/04/29 01:05:53;;;;;;;24.98;11.15;;;;;;;10.09;78.93;98643.81;1812020;78;21157;-81
2021/04/29 01:08:34;;;;;;;26.57;11.50;;;;;;;10.05;80.63;98638.31;1799315;79;21162;-81
2021/04/29 01:11:16;;;;;;;22.22;9.28;;;;;;;10.02;78.56;98636.63;1785770;79;21849;-79
2021/04/29 01:13:48;;;;;;;20.20;9.73;;;;;;;9.96;79.85;98636.82;1807217;79;22114;-79
2021/04/29 01:16:18;;;;;;;20.08;9.90;;;;;;;9.90;81.34;98643.04;1739005;82;21173;-79
2021/04/29 01:18:47;;;;;;;18.90;8.78;;;;;;;9.89;81.41;98642.66;1753775;81;21192;-79
2021/04/29 01:21:16;;;;;;;16.27;9.18;;;;;;;9.90;80.03;98635.25;1757319;81;21195;-78
2021/04/29 01:24:19;;;;;;;17.57;9.13;;;;;;;9.90;81.70;98633.95;1796407;79;21165;-79
2021/04/29 01:27:01;;;;;;;17.02;8.68;;;;;;;9.93;81.35;98642.13;1788753;79;21153;-78
2021/04/29 01:29:33;;;;;;;16.55;8.28;;;;;;;10.00;80.55;98644.08;1791183;79;21640;-82
2021/04/29 01:32:01;;;;;;;16.45;8.33;;;;;;;10.06;79.42;98638.70;1790785;79;21250;-79
2021/04/29 01:34:35;;;;;;;17.92;8.43;;;;;;;10.12;79.68;98638.50;1799640;79;21272;-80
2021/04/29 01:37:02;;;;;;;23.57;8.17;;;;;;;10.19;79.80;98645.23;1747662;82;21132;-80
2021/04/29 01:39:30;;;;;;;15.70;8.65;;;;;;;10.23;80.98;98646.83;1809469;79;21202;-80
2021/04/29 01:41:59;;;;;;;20.82;9.63;;;;;;;10.25;80.10;98651.53;1803305;79;21153;-81
2021/04/29 01:44:29;;;;;;;18.48;9.93;;;;;;;10.28;79.93;98645.37;1807521;79;21468;-80
2021/04/29 01:46:59;;;;;;;23.67;10.05;;;;;;;10.29;79.87;98647.09;1784679;79;21677;-81
2021/04/29 01:49:29;;;;;;;17.48;9.40;;;;;;;10.27;79.85;98652.79;1801218;79;21124;-80
2021/04/29 01:51:57;;;;;;;20.88;10.03;;;;;;;10.23;79.81;98647.29;1790207;79;21312;-80
2021/04/29 01:54:26;;;;;;;23.45;9.80;;;;;;;10.20;79.20;98639.58;1806935;79;21145;-80
2021/04/29 01:56:54;;;;;;;17.77;9.85;;;;;;;10.16;80.11;98647.45;1787526;79;21545;-79
2021/04/29 01:59:22;;;;;;;17.95;10.10;;;;;;;10.13;78.25;98646.72;1802445;79;21491;-79
2021/04/29 02:01:50;;;;;;;22.52;10.63;;;;;;;10.06;79.69;98649.92;1806854;79;21581;-80
2021/04/29 02:04:18;;;;;;;22.58;10.45;;;;;;;10.00;79.84;98654.01;1803507;79;21170;-79
2021/04/29 02:06:46;;;;;;;20.27;11.28;;;;;;;9.96;79.94;98648.51;1806396;79;21619;-80
2021/04/29 02:09:15;;;;;;;29.23;10.45;;;;;;;9.90;79.42;98652.59;1798613;79;21172;-79
2021/04/29 02:11:55;;;;;;;26.07;9.75;;;;;;;9.84;78.77;98651.47;1788865;80;21161;-80
2021/04/29 02:14:33;;;;;;;20.15;9.53;;;;;;;9.79;79.25;98651.61;1801337;79;21156;-79
2021/04/29 02:17:06;;;;;;;17.98;8.98;;;;;;;9.75;79.59;98650.84;1779314;79;21138;-79
2021/04/29 02:19:35;;;;;;;24.27;9.03;;;;;;;9.74;79.73;98663.41;1808199;79;21551;-79
2021/04/29 02:22:03;;;;;;;19.57;8.75;;;;;;;9.71;80.39;98663.52;1793156;79;21145;-83
2021/04/29 02:24:35;;;;;;;17.52;8.30;;;;;;;9.74;79.67;98663.41;1787543;79;21155;-81
2021/04/29 02:27:04;;;;;;;18.45;8.18;;;;;;;9.74;79.79;98662.11;1736141;82;21179;-83
2021/04/29 02:29:32;;;;;;;16.37;8.18;;;;;;;9.75;80.08;98665.13;1803269;79;21633;-81
2021/04/29 02:31:59;;;;;;;16.87;8.38;;;;;;;9.77;79.18;98659.89;1811117;79;21299;-80
2021/04/29 02:34:28;;;;;;;18.60;8.50;;;;;;;9.77;80.02;98661.19;1814329;79;22241;-82
2021/04/29 02:36:56;;;;;;;20.27;8.80;;;;;;;9.78;79.75;98664.17;1745256;82;21167;-81
2021/04/29 02:39:25;;;;;;;18.17;8.98;;;;;;;9.79;79.47;98663.72;1752760;81;21218;-79
2021/04/29 02:41:52;;;;;;;17.85;8.45;;;;;;;9.81;79.38;98668.00;1777080;79;21508;-80
2021/04/29 02:44:20;;;;;;;14.33;8.15;;;;;;;9.82;78.86;98672.73;1788990;79;21635;-79
2021/04/29 02:46:47;;;;;;;20.82;8.93;;;;;;;9.80;79.41;98670.62;1797204;79;21610;-79
2021/04/29 02:49:14;;;;;;;20.20;8.53;;;;;;;9.80;78.31;98670.62;1798329;79;21202;-79
2021/04/29 02:51:42;;;;;;;18.57;8.58;;;;;;;9.78;78.20;98677.61;1796631;79;21175;-79
2021/04/29 02:54:10;;;;;;;22.98;9.08;;;;;;;9.74;78.66;98675.09;1795048;79;22142;-79
2021/04/29 02:56:41;;;;;;;18.87;8.58;;;;;;;9.72;78.68;98674.73;1799593;79;21273;-79
2021/04/29 02:59:10;;;;;;;19.70;9.45;;;;;;;9.69;78.56;98673.09;1785440;79;21155;-77
2021/04/29 03:01:41;;;;;;;21.17;8.33;;;;;;;9.67;78.99;98675.30;1797638;79;21645;-80
2021/04/29 03:04:09;;;;;;;18.55;8.45;;;;;;;9.64;78.76;98680.59;1806685;78;21641;-78
2021/04/29 03:06:37;;;;;;;15.80;7.85;;;;;;;9.62;79.04;98677.19;1783324;80;21171;-79
2021/04/29 03:09:06;;;;;;;18.70;8.28;;;;;;;9.61;78.43;98673.75;1801842;79;21187;-80
2021/04/29 03:11:37;;;;;;;24.18;8.95;;;;;;;9.62;77.90;98681.08;1807764;79;21181;-80
2021/04/29 03:14:05;;;;;;;19.27;8.50;;;;;;;9.61;79.34;98677.65;1797950;79;21526;-79
2021/04/29 03:16:32;;;;;;;17.80;8.60;;;;;;;9.64;79.16;98686.62;1790771;79;21188;-79
2021/04/29 03:19:00;;;;;;;16.67;7.78;;;;;;;9.64;79.83;98685.78;1796024;79;22334;-80
2021/04/29 03:21:27;;;;;;;21.80;9.18;;;;;;;9.64;80.04;98689.22;1790088;79;21307;-82
2021/04/29 03:23:55;;;;;;;17.40;8.20;;;;;;;9.68;78.80;98692.14;1805830;79;21156;-82
2021/04/29 03:26:22;;;;;;;17.98;8.55;;;;;;;9.72;78.58;98691.61;1800108;79;21158;-81
2021/04/29 03:28:49;;;;;;;29.32;9.10;;;;;;;9.75;79.70;98694.98;1797516;79;21631;-80
2021/04/29 03:31:17;;;;;;;20.23;8.65;;;;;;;9.81;78.68;98700.87;1788074;79;22064;-81
2021/04/29 03:33:45;;;;;;;21.07;9.45;;;;;;;9.86;78.60;98705.05;1807152;79;21182;-79
2021/04/29 03:36:12;;;;;;;26.97;9.28;;;;;;;9.92;78.44;98704.86;1804865;79;21349;-79
2021/04/29 03:38:40;;;;;;;22.55;9.20;;;;;;;9.98;78.78;98714.23;1812443;78;21333;-79
2021/04/29 03:41:07;;;;;;;24.63;10.28;;;;;;;10.03;78.23;98716.27;1814283;78;21336;-80
2021/04/29 03:43:34;;;;;;;18.37;9.05;;;;;;;10.07;77.72;98717.88;1798888;79;21148;-79
2021/04/29 03:46:02;;;;;;;15.78;8.88;;;;;;;10.11;77.71;98710.84;1753260;82;21178;-81
2021/04/29 03:48:29;;;;;;;27.50;8.60;;;;;;;10.13;77.98;98714.25;1751478;81;21185;-82
2021/04/29 03:50:57;;;;;;;24.18;9.30;;;;;;;10.16;77.84;98717.58;1749593;81;21279;-82
2021/04/29 03:53:24;;;;;;;19.50;9.05;;;;;;;10.20;77.77;98720.11;1766008;81;21560;-81
2021/04/29 03:55:52;;;;;;;27.42;11.93;;;;;;;10.22;78.41;98724.81;1770806;81;21161;-80
2021/04/29 03:58:20;;;;;;;25.70;12.98;;;;;;;10.23;78.01;98720.03;1767221;81;21238;-81
2021/04/29 04:00:48;;;;;;;27.32;14.28;;;;;;;10.24;78.63;98712.63;1769090;81;21169;-81
2021/04/29 04:03:15;;;;;;;33.05;13.65;;;;;;;10.24;78.62;98722.56;1753294;81;21284;-81
2021/04/29 04:05:42;;;;;;;22.55;11.93;;;;;;;10.27;78.49;98720.34;1757058;81;21594;-81
2021/04/29 04:08:10;;;;;;;25.43;11.33;;;;;;;10.27;78.58;98721.18;1769170;81;21204;-80
2021/04/29 04:10:37;;;;;;;24.82;10.90;;;;;;;10.29;78.58;98731.54;1760172;81;21200;-80
2021/04/29 04:13:04;;;;;;;17.70;9.40;;;;;;;10.31;77.87;98731.08;1788744;79;21173;-79
2021/04/29 04:15:32;;;;;;;17.25;8.78;;;;;;;10.30;77.56;98725.45;1812461;79;21625;-80
2021/04/29 04:17:59;;;;;;;18.52;8.58;;;;;;;10.28;78.22;98728.52;1805782;78;21373;-79
2021/04/29 04:20:26;;;;;;;25.08;9.48;;;;;;;10.27;78.94;98726.84;1810200;79;21173;-80
2021/04/29 04:22:55;;;;;;;18.90;8.90;;;;;;;10.29;78.03;98735.44;1807203;79;21153;-79
2021/04/29 04:25:23;;;;;;;23.90;8.68;;;;;;;10.29;77.90;98737.58;1810605;79;21174;-82
2021/04/29 04:27:50;;;;;;;25.77;9.13;;;;;;;10.34;77.87;98728.36;1794485;79;21636;-80
2021/04/29 04:30:18;;;;;;;17.98;9.33;;;;;;;10.41;78.11;98732.49;1799639;78;21157;-83
2021/04/29 04:32:45;;;;;;;17.02;8.33;;;;;;;10.50;78.16;98733.52;1812987;78;21146;-81
2021/04/29 04:35:13;;;;;;;24.35;9.40;;;;;;;10.59;78.21;98738.88;1813564;78;21148;-84
2021/04/29 04:37:41;;;;;;;17.00;8.68;;;;;;;10.67;77.99;98743.84;1808916;78;22313;-80
2021/04/29 04:40:09;;;;;;;24.57;10.98;;;;;;;10.71;77.96;98746.30;1809126;79;21285;-80
2021/04/29 04:42:37;;;;;;;27.50;12.58;;;;;;;10.83;78.16;98744.22;1786008;79;21138;-80
2021/04/29 04:45:08;;;;;;;28.20;11.93;;;;;;;10.88;78.16;98747.08;1801228;79;21189;-83
2021/04/29 04:47:36;;;;;;;28.42;13.10;;;;;;;10.97;77.95;98748.52;1798777;79;21180;-80
2021/04/29 04:50:07;;;;;;;27.90;12.75;;;;;;;11.02;77.62;98750.53;1804923;79;21130;-84
2021/04/29 04:52:34;;;;;;;28.38;11.90;;;;;;;11.10;77.20;98743.75;1742225;81;21177;-83
2021/04/29 04:55:03;;;;;;;30.35;12.55;;;;;;;11.17;76.58;98753.53;1799425;79;21164;-82
2021/04/29 04:57:30;;;;;;;32.70;13.60;;;;;;;11.23;76.83;98745.06;1790742;79;21955;-79
2021/04/29 04:59:58;;;;;;;35.33;14.98;;;;;;;11.34;77.07;98756.43;1808023;79;21150;-80
2021/04/29 05:02:25;;;;;;;33.53;15.80;;;;;;;11.42;77.04;98753.55;1744620;81;21155;-80
2021/04/29 05:04:53;;;;;;;36.90;20.55;;;;;;;11.49;77.08;98751.14;1792882;79;21627;-78
2021/04/29 05:07:21;;;;;;;37.73;18.77;;;;;;;11.55;76.73;98754.38;1793196;79;21185;-79
2021/04/29 05:09:48;;;;;;;38.70;18.10;;;;;;;11.61;76.78;98749.87;1801424;79;21165;-78
2021/04/29 05:12:15;;;;;;;55.10;24.63;;;;;;;11.63;76.58;98751.50;1745525;81;21582;-79
2021/04/29 05:14:43;;;;;;;91.45;39.70;;;;;;;11.63;76.44;98751.50;1809315;79;21174;-79
2021/04/29 05:17:10;;;;;;;71.05;33.53;;;;;;;11.65;75.85;98760.58;1793718;79;21162;-79
2021/04/29 05:19:38;;;;;;;55.75;27.52;;;;;;;11.63;75.69;98750.20;1790891;79;21163;-82
2021/04/29 05:22:06;;;;;;;52.30;24.23;;;;;;;11.62;75.98;98759.36;1745512;81;21165;-81
2021/04/29 05:24:33;;;;;;;34.92;18.30;;;;;;;11.62;75.90;98756.76;1748951;81;21149;-81
2021/04/29 05:27:01;;;;;;;34.78;14.43;;;;;;;11.60;75.90;98763.77;1740584;81;21758;-81
2021/04/29 05:29:28;;;;;;;33.83;13.20;;;;;;;11.58;76.27;98757.77;1761998;81;21180;-81
2021/04/29 05:31:56;;;;;;;21.85;11.90;;;;;;;11.60;76.07;98763.34;1780097;79;21189;-80
2021/04/29 05:34:23;;;;;;;22.87;10.05;;;;;;;11.63;76.08;98759.32;1804061;79;21141;-79
2021/04/29 05:36:51;;;;;;;19.98;9.88;;;;;;;11.68;75.96;98753.52;1805395;79;21161;-79
2021/04/29 05:39:18;;;;;;;23.22;9.38;;;;;;;11.77;76.23;98756.69;1802028;79;21161;-81
2021/04/29 05:41:45;;;;;;;22.02;10.88;;;;;;;11.85;76.09;98760.72;1807888;79;21173;-79
2021/04/29 05:44:13;;;;;;;29.18;12.68;;;;;;;11.95;76.03;98759.97;1740487;81;21655;-78
2021/04/29 05:46:41;;;;;;;28.15;13.62;;;;;;;12.00;75.48;98754.61;1798320;78;21173;-79
2021/04/29 05:49:09;;;;;;;21.80;10.35;;;;;;;12.08;75.33;98755.18;1799020;79;21641;-80
2021/04/29 05:51:36;;;;;;;20.00;9.10;;;;;;;12.16;74.70;98754.90;1782264;79;21607;-79
2021/04/29 05:54:04;;;;;;;15.10;7.17;;;;;;;12.24;73.84;98764.13;1797616;79;21169;-78
2021/04/29 05:56:31;;;;;;;19.85;7.70;;;;;;;12.36;72.81;98760.21;1797831;79;21133;-79
2021/04/29 05:58:59;;;;;;;15.10;6.62;;;;;;;12.50;71.10;98761.83;1801600;79;21590;-79
2021/04/29 06:01:26;;;;;;;23.67;6.58;;;;;;;12.66;69.63;98757.34;1783006;79;21627;-79
2021/04/29 06:03:53;;;;;;;17.55;6.30;;;;;;;12.81;68.97;98761.09;1802508;79;21122;-79
2021/04/29 06:06:22;;;;;;;16.45;5.28;;;;;;;12.97;69.87;98754.80;1803076;79;21156;-79
2021/04/29 06:08:50;;;;;;;15.58;7.55;;;;;;;13.14;68.93;98757.59;1803496;79;21178;-80
2021/04/29 06:11:18;;;;;;;12.93;6.72;;;;;;;13.29;69.05;98752.17;1800919;79;21169;-81
2021/04/29 06:13:46;;;;;;;17.10;7.70;;;;;;;13.40;67.67;98759.14;1780855;80;21188;-77
2021/04/29 06:16:14;;;;;;;14.30;6.28;;;;;;;13.53;67.70;98756.88;1783610;79;21173;-81
2021/04/29 06:18:43;;;;;;;15.85;6.25;;;;;;;13.52;66.52;98757.31;1781421;80;21173;-82
2021/04/29 06:21:11;;;;;;;13.28;6.03;;;;;;;13.54;66.57;98759.88;1774579;79;21171;-78
2021/04/29 06:23:38;;;;;;;12.75;6.33;;;;;;;13.60;67.27;98750.93;1778353;79;21179;-80
2021/04/29 06:26:05;;;;;;;12.13;5.70;;;;;;;13.57;67.00;98753.66;1778065;80;21138;-79
2021/04/29 06:28:33;;;;;;;13.98;6.22;;;;;;;13.68;67.11;98762.73;1775444;79;21789;-83
2021/04/29 06:31:00;;;;;;;19.73;6.87;;;;;;;13.73;66.61;98766.48;1782191;79;21146;-77
2021/04/29 06:33:27;;;;;;;15.10;5.70;;;;;;;13.77;66.33;98765.42;1774336;79;21165;-77
2021/04/29 06:35:55;;;;;;;14.18;5.55;;;;;;;13.79;66.81;98760.98;1780387;80;21128;-79
2021/04/29 06:38:23;;;;;;;15.80;6.15;;;;;;;13.90;66.27;98770.48;1783261;79;21297;-82
2021/04/29 06:40:51;;;;;;;18.55;6.33;;;;;;;14.01;66.14;98762.19;1772783;80;21226;-83
2021/04/29 06:43:20;;;;;;;13.05;6.47;;;;;;;14.15;65.01;98758.96;1738098;81;21149;-85
2021/04/29 06:45:48;;;;;;;12.68;5.50;;;;;;;14.17;64.98;98759.74;1704121;82;21244;-85
2021/04/29 06:48:15;;;;;;;16.17;6.22;;;;;;;14.30;64.38;98762.63;1705059;82;21343;-84
2021/04/29 06:50:43;;;;;;;12.33;6.83;;;;;;;14.40;64.19;98758.67;1702310;84;21200;-85
2021/04/29 06:53:10;;;;;;;11.28;5.53;;;;;;;14.41;62.82;98749.92;1735293;81;21288;-82
2021/04/29 06:55:38;;;;;;;10.43;5.37;;;;;;;14.59;63.56;98749.56;1772673;79;21164;-83
2021/04/29 06:58:06;;;;;;;13.20;5.25;;;;;;;14.75;61.58;98743.61;1736432;81;21255;-81
2021/04/29 07:00:34;;;;;;;9.93;4.20;;;;;;;14.89;60.17;98757.71;1694572;82;21183;-81
2021/04/29 07:03:02;;;;;;;10.18;4.42;;;;;;;14.96;60.88;98763.95;1745076;81;21275;-80
2021/04/29 07:05:30;;;;;;;9.40;4.53;;;;;;;14.96;59.55;98767.88;1736977;81;21192;-85
2021/04/29 07:07:57;;;;;;;9.98;4.37;;;;;;;14.89;59.04;98774.72;1737399;81;21177;-82
2021/04/29 07:10:25;;;;;;;11.57;4.55;;;;;;;14.87;60.42;98773.11;1710568;82;21816;-85
2021/04/29 07:12:54;;;;;;;10.32;4.58;;;;;;;14.84;60.52;98774.11;1702859;84;21147;-82
2021/04/29 07:15:21;;;;;;;15.68;4.95;;;;;;;14.82;59.86;98770.72;1734710;82;21162;-83
2021/04/29 07:17:49;;;;;;;15.78;5.78;;;;;;;14.75;60.27;98771.08;1708725;82;21184;-83
2021/04/29 07:20:16;;;;;;;11.38;6.03;;;;;;;14.66;61.22;98770.59;1705567;84;21590;-83
2021/04/29 07:22:43;;;;;;;19.62;5.53;;;;;;;14.62;61.68;98769.48;1735124;82;21162;-81
2021/04/29 07:25:11;;;;;;;17.70;5.65;;;;;;;14.63;61.52;98775.13;1734674;82;21186;-82
2021/04/29 07:27:38;;;;;;;14.38;5.53;;;;;;;14.57;61.02;98774.94;1738905;82;21139;-82
2021/04/29 07:30:08;;;;;;;14.15;4.78;;;;;;;14.66;61.40;98774.53;1740427;81;21153;-82
2021/04/29 07:32:36;;;;;;;15.15;5.97;;;;;;;14.80;61.39;98771.70;1696504;82;21156;-82
2021/04/29 07:35:05;;;;;;;10.60;4.83;;;;;;;15.01;61.44;98770.67;1730786;81;21169;-84
2021/04/29 07:37:32;;;;;;;11.88;4.67;;;;;;;15.24;59.56;98768.25;1735695;81;21149;-83
2021/04/29 07:39:59;;;;;;;11.25;3.83;;;;;;;15.49;59.56;98763.09;1743653;81;21152;-86
2021/04/29 07:42:27;;;;;;;7.35;3.45;;;;;;;15.78;57.46;98761.64;1747620;81;21312;-86
2021/04/29 07:44:58;;;;;;;6.75;3.60;;;;;;;16.06;59.25;98762.83;1738685;82;21288;-89
2021/04/29 07:47:30;;;;;;;6.40;3.47;;;;;;;16.35;54.42;98762.55;1735059;82;21295;-86
2021/04/29 07:49:58;;;;;;;16.75;3.45;;;;;;;16.64;55.96;98770.16;1739757;82;21248;-87
2021/04/29 07:52:27;;;;;;;8.13;2.47;;;;;;;16.89;56.17;98765.75;1738943;81;21319;-85
2021/04/29 07:54:55;;;;;;;5.33;2.45;;;;;;;17.06;54.84;98767.88;1735642;81;21326;-85
2021/04/29 07:57:23;;;;;;;6.47;2.67;;;;;;;17.24;51.11;98763.35;1736173;81;21322;-82
2021/04/29 07:59:51;;;;;;;8.40;2.95;;;;;;;17.34;53.01;98763.19;1737122;81;21589;-86
2021/04/29 08:02:19;;;;;;;8.90;2.47;;;;;;;17.35;52.44;98766.22;1737630;82;21283;-82
2021/04/29 08:04:47;;;;;;;4.40;2.33;;;;;;;17.36;50.04;98767.89;1735371;82;21192;-84
2021/04/29 08:07:14;;;;;;;7.80;2.65;;;;;;;17.43;52.74;98768.40;1737018;82;21176;-82
2021/04/29 08:09:44;;;;;;;4.62;2.45;;;;;;;17.42;50.52;98758.81;1732905;82;21177;-82
2021/04/29 08:12:11;;;;;;;6.95;3.12;;;;;;;17.39;51.91;98759.84;1739447;81;21180;-81
2021/04/29 08:14:40;;;;;;;9.58;2.72;;;;;;;17.44;51.15;98755.62;1747965;81;21316;-83
2021/04/29 08:17:08;;;;;;;4.45;2.62;;;;;;;17.53;51.00;98748.97;1731009;81;22291;-85
2021/04/29 08:19:37;;;;;;;5.75;2.55;;;;;;;17.47;48.94;98749.72;1736108;82;21277;-86
2021/04/29 08:22:04;;;;;;;6.12;2.75;;;;;;;17.45;48.24;98745.50;1762569;81;21617;-86
2021/04/29 08:24:32;;;;;;;7.90;2.72;;;;;;;17.56;51.63;98739.12;1750666;81;21285;-83
2021/04/29 08:27:00;;;;;;;9.15;2.72;;;;;;;17.66;50.43;98737.63;1770497;81;21578;-86
2021/04/29 08:29:29;;;;;;;7.42;2.75;;;;;;;17.79;51.90;98729.03;1749794;81;21290;-85
2021/04/29 08:31:57;;;;;;;5.70;2.77;;;;;;;17.91;51.70;98728.80;1748582;81;21301;-86
2021/04/29 08:34:24;;;;;;;5.70;2.80;;;;;;;17.97;48.89;98717.41;1751863;81;21188;-87
2021/04/29 08:36:51;;;;;;;6.37;3.87;;;;;;;18.08;48.96;98724.63;1767867;80;21275;-85
2021/04/29 08:39:19;;;;;;;6.55;3.08;;;;;;;18.06;47.21;98723.44;1749167;81;21437;-86
2021/04/29 08:41:47;;;;;;;7.90;3.12;;;;;;;18.17;50.15;98725.87;1760124;81;21280;-84
2021/04/29 08:44:14;;;;;;;9.25;3.20;;;;;;;18.25;48.16;98727.07;1740566;81;21319;-86
2021/04/29 08:46:42;;;;;;;9.15;2.50;;;;;;;18.35;49.25;98732.60;1748124;81;21201;-85
2021/04/29 08:49:10;;;;;;;5.85;2.75;;;;;;;18.42;47.42;98725.16;1755359;81;21272;-85
2021/04/29 08:51:38;;;;;;;9.20;2.60;;;;;;;18.46;48.53;98720.07;1748874;82;21159;-85
2021/04/29 08:54:05;;;;;;;5.67;2.35;;;;;;;18.52;49.07;98718.36;1744988;81;21301;-86
2021/04/29 08:56:33;;;;;;;7.25;2.72;;;;;;;18.54;49.40;98716.48;1719663;83;21149;-86
2021/04/29 08:59:01;;;;;;;4.42;2.17;;;;;;;18.55;48.55;98713.39;1746883;81;21315;-83
2021/04/29 09:01:41;;;;;;;7.78;2.20;;;;;;;18.55;48.15;98709.45;1742429;81;21308;-80
2021/04/29 09:04:18;;;;;;;7.28;2.27;;;;;;;18.57;47.14;98706.24;1765779;81;22240;-84
2021/04/29 09:06:47;;;;;;;5.72;2.65;;;;;;;18.58;47.16;98715.81;1760525;81;21142;-83
2021/04/29 09:09:17;;;;;;;4.67;2.12;;;;;;;18.64;48.40;98716.28;1771709;80;21304;-83
2021/04/29 09:11:53;;;;;;;6.67;2.55;;;;;;;18.69;48.19;98705.45;1753118;81;21204;-83
2021/04/29 09:14:40;;;;;;;5.17;2.17;;;;;;;18.75;48.52;98702.41;1748262;81;21260;-85
2021/04/29 09:17:10;;;;;;;5.80;2.05;;;;;;;18.89;46.71;98698.91;1736352;83;21267;-85
2021/04/29 09:19:51;;;;;;;6.83;2.10;;;;;;;18.95;47.08;98702.94;1733040;81;21241;-87
2021/04/29 09:22:22;;;;;;;4.90;2.25;;;;;;;19.03;47.92;98692.26;1744272;80;21520;-83
2021/04/29 09:24:50;;;;;;;5.37;2.10;;;;;;;19.11;46.97;98689.12;1749125;81;21251;-87
2021/04/29 09:27:28;;;;;;;4.62;2.30;;;;;;;19.10;47.05;98683.94;1735477;81;21177;-87
2021/04/29 09:30:00;;;;;;;6.50;2.20;;;;;;;19.13;47.14;98666.14;1737937;81;21295;-87
2021/04/29 09:32:36;;;;;;;7.28;2.02;;;;;;;19.29;47.32;98668.59;1751970;81;21145;-84
2021/04/29 09:35:21;;;;;;;3.52;1.98;;;;;;;19.38;46.53;98668.45;1750068;81;21156;-84
2021/04/29 09:37:49;;;;;;;5.37;1.80;;;;;;;19.52;47.60;98663.53;1742670;81;21149;-81
2021/04/29 09:40:25;;;;;;;4.08;1.90;;;;;;;19.66;46.03;98666.92;1740851;81;21138;-82
2021/04/29 09:42:56;;;;;;;4.20;1.55;;;;;;;19.79;46.10;98652.42;1735973;81;21142;-82
2021/04/29 09:45:32;;;;;;;4.17;1.60;;;;;;;19.87;45.06;98651.89;1754417;81;21192;-83
2021/04/29 09:48:04;;;;;;;4.50;1.70;;;;;;;19.97;45.84;98645.48;1742059;81;21511;-82
2021/04/29 09:50:41;;;;;;;4.55;1.80;;;;;;;20.17;46.47;98647.54;1755015;81;21135;-83
2021/04/29 09:53:16;;;;;;;4.20;1.40;;;;;;;20.29;45.64;98648.94;1744890;81;21138;-84
2021/04/29 09:55:49;;;;;;;3.67;1.52;;;;;;;20.36;44.58;98655.47;1753342;81;21149;-84
2021/04/29 09:58:21;;;;;;;7.50;2.20;;;;;;;20.37;43.80;98647.91;1748713;81;21155;-86
2021/04/29 10:00:51;;;;;;;3.15;1.55;;;;;;;20.56;45.10;98637.69;1743865;81;21180;-81
2021/04/29 10:03:20;;;;;;;4.20;1.40;;;;;;;20.77;44.99;98631.34;1752896;81;21122;-85
2021/04/29 10:05:53;;;;;;;2.98;1.30;;;;;;;20.92;44.84;98625.86;1738071;81;21145;-86
2021/04/29 10:08:25;;;;;;;5.83;1.60;;;;;;;21.03;45.06;98624.59;1744259;81;21335;-83
2021/04/29 10:10:56;;;;;;;4.62;1.80;;;;;;;21.17;44.79;98620.86;1750208;81;21149;-83
2021/04/29 10:13:31;;;;;;;4.87;1.65;;;;;;;21.33;44.69;98610.82;1787902;79;21161;-79
2021/04/29 10:16:00;;;;;;;6.22;1.62;;;;;;;21.40;41.36;98613.83;1794020;79;21150;-92
2021/04/29 10:18:28;;;;;;;14.78;3.22;;;;;;;21.54;43.79;98604.84;1804939;79;21312;-90
2021/04/29 10:21:00;;;;;;;6.50;1.85;;;;;;;21.68;43.50;98599.80;1802827;77;21271;-92
2021/04/29 10:23:28;;;;;;;5.03;1.50;;;;;;;21.58;41.17;98607.13;1809705;78;21157;-90
2021/04/29 10:25:59;;;;;;;6.05;1.55;;;;;;;21.64;42.38;98611.94;1800144;79;21161;-91
2021/04/29 10:28:42;;;;;;;4.20;1.90;;;;;;;21.71;42.56;98607.51;1790368;79;21135;-92
2021/04/29 10:31:26;;;;;;;5.72;1.80;;;;;;;21.79;41.99;98600.64;1798838;79;21261;-90
2021/04/29 10:34:07;;;;;;;2.98;1.32;;;;;;;21.93;42.50;98589.45;1802551;79;21509;-88
2021/04/29 10:40:09;;;;;;;6.35;1.50;;;;;;;22.11;38.16;98598.55;1682102;83;21441;-91
2021/04/29 10:49:00;;;;;;;3.02;1.45;;;;;;;22.52;37.49;98581.59;1719141;80;21199;-90
2021/04/29 10:51:33;;;;;;;4.53;1.47;;;;;;;22.56;39.08;98579.05;1743812;78;21294;-90
2021/04/29 10:57:07;;;;;;;4.60;1.90;;;;;;;22.92;38.42;98570.31;1789582;79;21154;-92
2021/04/29 10:59:43;;;;;;;5.80;1.52;;;;;;;23.03;37.97;98576.42;1793435;78;21220;-90
2021/04/29 11:02:35;;;;;;;9.55;2.00;;;;;;;23.12;36.20;98580.58;1732592;80;21120;-90
2021/04/29 11:05:07;;;;;;;7.70;2.45;;;;;;;23.21;37.16;98575.83;1742141;81;21297;-89
2021/04/29 11:07:45;;;;;;;3.35;1.40;;;;;;;23.24;36.98;98574.25;1735914;82;21155;-90
2021/04/29 11:10:17;;;;;;;5.35;1.62;;;;;;;23.37;36.66;98575.34;1729531;82;21274;-91
2021/04/29 11:12:55;;;;;;;10.32;1.60;;;;;;;23.60;36.94;98575.53;1740861;77;21191;-87
2021/04/29 11:15:40;;;;;;;7.17;2.10;;;;;;;23.79;34.94;98574.77;1716733;83;21315;-90
2021/04/29 11:18:16;;;;;;;7.37;2.10;;;;;;;24.17;36.70;98576.33;1717482;82;21136;-91
2021/04/29 11:20:58;;;;;;;4.45;1.95;;;;;;;24.25;34.34;98577.80;1724807;83;21505;-87
2021/04/29 11:23:41;;;;;;;7.10;2.02;;;;;;;24.29;34.38;98563.76;1706860;83;21155;-90
2021/04/29 11:26:15;;;;;;;4.25;1.62;;;;;;;24.45;35.17;98568.52;1719090;83;21267;-88
2021/04/29 11:28:45;;;;;;;5.97;1.55;;;;;;;24.91;35.15;98558.53;1703888;84;21194;-91
2021/04/29 11:31:14;;;;;;;4.75;1.98;;;;;;;24.99;34.58;98559.98;1719918;80;21291;-90
2021/04/29 11:33:47;;;;;;;4.08;1.62;;;;;;;24.93;32.57;98555.70;1762714;81;21236;-89
2021/04/29 11:36:26;;;;;;;5.25;1.70;;;;;;;25.13;34.69;98560.02;1742254;81;21373;-88
2021/04/29 11:39:06;;;;;;;10.03;1.90;;;;;;;25.13;34.12;98561.35;1756737;81;21126;-89
2021/04/29 11:41:40;;;;;;;3.52;1.67;;;;;;;24.79;33.23;98559.68;1748369;81;21268;-90
2021/04/29 11:44:17;;;;;;;6.83;1.45;;;;;;;24.92;34.54;98562.02;1732514;82;21213;-92
2021/04/29 11:46:51;;;;;;;7.35;2.20;;;;;;;24.93;34.40;98554.38;1751994;81;21135;-92
2021/04/29 11:49:20;;;;;;;4.40;1.67;;;;;;;25.15;33.20;98554.06;1755851;81;21252;-92
2021/04/29 11:52:06;;;;;;;5.90;2.02;;;;;;;25.48;33.44;98557.19;1741502;80;21135;-89